Flight Track Log - Related Links

Times and Time Zones

All times are in EDT time to prevent confusion due to time zone crossing. See the AAR214 flight status page for this flight to view local times or setup timezone preferences in your user account.

Time Position Orientation Groundspeed Altitude Reporting Facility
EDT Latitude Longitude Course Direction KTS MPH feet Rate Location/Type
Sat 03:54:11 AM 37.3040 126.6150 161° South 269 310 6,900  Level FlightAware ADS-B
Sat 03:54:26 AM 37.2850 126.6290 150° Southeast 269 310 7,500 2,400 Climbing FlightAware ADS-B
Sat 03:54:31 AM 37.2810 126.6350 130° Southeast 277 319 7,700 1,579 Climbing FlightAware ADS-B
Sat 03:54:45 AM 37.2740 126.6550 114° Southeast 280 322 8,000 1,250 Climbing FlightAware ADS-B
Sat 03:54:55 AM 37.2720 126.6720 98° East 291 335 8,200 387 Climbing FlightAware ADS-B
Sat 03:55:16 AM 37.2740 126.7080 86° East 292 336 8,200 783 Level FlightAware ADS-B
Sat 03:55:41 AM 37.2780 126.7510 83° East 297 342 8,800 1,227 Climbing FlightAware ADS-B
Sat 03:56:00 AM 37.2800 126.7840 86° East 297 342 9,100 828 Climbing FlightAware ADS-B
Sat 03:56:10 AM 37.2810 126.8000 86° East 298 343 9,200 194 Climbing FlightAware ADS-B
Sat 03:56:31 AM 37.2830 126.8340 86° East 301 346 9,200  Level FlightAware ADS-B
Sat 03:56:46 AM 37.2840 126.8590 87° East 298 343 9,200 125 Level FlightAware ADS-B
Sat 03:57:19 AM 37.2870 126.9080 86° East 299 344 9,300 1,971 Climbing FlightAware ADS-B
Sat 03:57:56 AM 37.2830 126.9840 94° East 309 356 11,500 2,667 Climbing FlightAware ADS-B
Sat 03:58:31 AM 37.2640 127.0450 111° Southeast 323 372 12,500 1,333 Climbing FlightAware ADS-B
Sat 03:59:08 AM 37.2430 127.1090 112° Southeast 355 409 13,100 1,015 Climbing FlightAware ADS-B
Sat 03:59:36 AM 37.2310 127.1690 104° East 376 433 13,600 1,400 Climbing FlightAware ADS-B
Sat 04:00:08 AM 37.2370 127.2390 84° East 387 445 14,500 1,200 Climbing FlightAware ADS-B
Sat 04:00:46 AM 37.2450 127.3260 83° East 394 453 15,000 411 Climbing FlightAware ADS-B
Sat 04:01:21 AM 37.2530 127.4070 83° East 395 455 15,000  Level FlightAware ADS-B
Sat 04:01:56 AM 37.2610 127.4850 83° East 392 451 15,000  Level FlightAware ADS-B
Sat 04:02:32 AM 37.2690 127.5640 83° East 393 452 15,000  Level FlightAware ADS-B
Sat 04:03:20 AM 37.2800 127.6590 82° East 392 451 15,000  Level FlightAware ADS-B
Sat 04:03:56 AM 37.2870 127.7290 83° East 392 451 15,000  Level FlightAware ADS-B
Sat 04:04:32 AM 37.2950 127.7980 82° East 392 451 15,000  Level FlightAware ADS-B
Sat 04:05:08 AM 37.3030 127.8670 82° East 392 451 15,000  Level FlightAware ADS-B
Sat 04:05:45 AM 37.3110 127.9380 82° East 392 451 15,000  Level FlightAware ADS-B
Sat 04:06:21 AM 37.3180 128.0070 83° East 392 451 15,000 764 Level FlightAware ADS-B
Sat 04:09:00 AM 37.5617 128.3625 49° Northeast  Level Estimated
Sat 04:10:00 AM 37.6534 128.4972 49° Northeast  Level Estimated
Sat 04:11:00 AM 37.7449 128.6323 49° Northeast  Level Estimated
Sat 04:12:00 AM 37.8363 128.7677 49° Northeast  Level Estimated
Sat 04:13:00 AM 37.9275 128.9035 50° Northeast  Level Estimated
Sat 04:14:00 AM 38.0186 129.0396 50° Northeast  Level Estimated
Sat 04:15:00 AM 38.1095 129.1760 50° Northeast  Level Estimated
Sat 04:16:00 AM 38.2002 129.3127 50° Northeast  Level Estimated
Sat 04:17:00 AM 38.2908 129.4498 50° Northeast  Level Estimated
Sat 04:18:00 AM 38.3812 129.5873 50° Northeast  Level Estimated
Sat 04:19:00 AM 38.4715 129.7251 50° Northeast  Level Estimated
Sat 04:20:00 AM 38.5616 129.8632 50° Northeast  Level Estimated
Sat 04:21:00 AM 38.6516 130.0017 50° Northeast  Level Estimated
Sat 04:22:00 AM 38.7413 130.1405 50° Northeast  Level Estimated
Sat 04:23:00 AM 38.8310 130.2797 50° Northeast  Level Estimated
Sat 04:24:00 AM 38.9204 130.4192 50° Northeast  Level Estimated
Sat 04:25:00 AM 39.0097 130.5591 51° Northeast  Level Estimated
Sat 04:26:00 AM 39.0988 130.6994 51° Northeast  Level Estimated
Sat 04:26:42 AM 36.4860 131.1570 51° Northeast 512 589 31,000  Level FlightAware ADS-B
Sat 04:27:27 AM 36.4400 131.2680 117° Southeast 513 590 31,000  Level FlightAware ADS-B
Sat 04:28:06 AM 36.4060 131.3560 116° Southeast 513 590 31,000  Level FlightAware ADS-B
Sat 04:28:43 AM 36.3730 131.4390 116° Southeast 513 590 31,000  Level FlightAware ADS-B
Sat 04:29:19 AM 36.3410 131.5210 116° Southeast 513 590 31,000  Level FlightAware ADS-B
Sat 04:29:42 AM 36.4170 131.6620 56° Northeast 515 593 31,000  Level FlightAware ADS-B
Sat 04:30:23 AM 36.4190 131.7790 89° East 514 592 31,000  Level FlightAware ADS-B
Sat 04:31:02 AM 36.4210 131.9060 89° East 514 592 31,000  Level FlightAware ADS-B
Sat 04:31:47 AM 36.4220 132.0360 89° East 512 589 31,000  Level FlightAware ADS-B
Sat 04:32:24 AM 36.4220 132.1280 90° East 512 589 31,000  Level FlightAware ADS-B
Sat 04:33:00 AM 36.4220 132.2190 90° East 512 589 31,000  Level FlightAware ADS-B
Sat 04:35:00 AM 36.3961 132.5672 95° East  Level FlightAware Approximate
Sat 04:35:44 AM 36.4290 132.7250 95° East 31,000  Level FlightAware ADS-B
Sat 04:36:29 AM 36.4300 132.8570 89° East 500 575 31,000  Level FlightAware ADS-B
Sat 04:37:02 AM 36.4300 132.9530 90° East 499 574 31,000  Level FlightAware ADS-B
Sat 04:37:37 AM 36.4310 133.0530 89° East 498 573 31,000  Level FlightAware ADS-B
Sat 04:38:12 AM 36.4310 133.1510 90° East 498 573 31,000  Level FlightAware ADS-B
Sat 04:38:47 AM 36.4310 133.2490 90° East 497 572 31,000  Level FlightAware ADS-B
Sat 04:39:17 AM 36.4310 133.3370 90° East 497 572 31,000  Level FlightAware ADS-B
Sat 04:39:57 AM 36.4310 133.4510 90° East 496 571 31,000  Level FlightAware ADS-B
Sat 04:40:32 AM 36.4320 133.5490 89° East 497 572 31,000  Level FlightAware ADS-B
Sat 04:41:14 AM 36.4310 133.6640 91° East 501 577 31,000  Level FlightAware ADS-B
Sat 04:41:49 AM 36.4310 133.7700 90° East 502 578 31,000  Level FlightAware ADS-B
Sat 04:42:24 AM 36.4310 133.8680 90° East 504 580 31,000  Level FlightAware ADS-B
Sat 04:42:59 AM 36.4310 133.9730 90° East 504 580 31,000  Level FlightAware ADS-B
Sat 04:43:34 AM 36.4300 134.0680 91° East 502 578 31,000  Level FlightAware ADS-B
Sat 04:44:13 AM 36.4300 134.1860 90° East 502 578 31,000 162 Level FlightAware ADS-B
Sat 04:44:48 AM 36.4290 134.2870 91° East 504 580 31,200 636 Climbing FlightAware ADS-B
Sat 04:45:19 AM 36.4280 134.3750 91° East 501 577 31,700 923 Climbing FlightAware ADS-B
Sat 04:45:53 AM 36.4280 134.4760 90° East 502 578 32,200 811 Climbing FlightAware ADS-B
Sat 04:46:33 AM 36.4270 134.5900 91° East 500 575 32,700 686 Climbing FlightAware ADS-B
Sat 04:47:03 AM 36.4260 134.6780 91° East 500 575 33,000 277 Climbing FlightAware ADS-B
Sat 04:47:38 AM 36.4250 134.7750 91° East 499 574 33,000  Level FlightAware ADS-B
Sat 04:48:18 AM 36.4240 134.8870 91° East 499 574 33,000  Level FlightAware ADS-B
Sat 04:48:48 AM 36.4230 134.9760 91° East 499 574 33,000  Level FlightAware ADS-B
Sat 04:49:23 AM 36.4210 135.0720 91° East 500 575 33,000  Level FlightAware ADS-B
Sat 04:49:53 AM 36.4200 135.1640 91° East 500 575 33,000  Level FlightAware ADS-B
Sat 04:50:28 AM 36.4190 135.2630 91° East 500 575 33,000  Level FlightAware ADS-B
Sat 04:51:04 AM 36.4170 135.3600 91° East 500 575 33,000  Level FlightAware ADS-B
Sat 04:51:38 AM 36.4160 135.4610 91° East 500 575 33,000  Level FlightAware ADS-B
Sat 04:52:18 AM 36.4140 135.5780 91° East 501 577 33,000  Level FlightAware ADS-B
Sat 04:52:48 AM 36.4120 135.6640 92° East 501 577 33,000  Level FlightAware ADS-B
Sat 04:53:28 AM 36.4100 135.7810 91° East 503 579 33,000  Level FlightAware ADS-B
Sat 04:54:09 AM 36.4080 135.8890 91° East 504 580 33,000  Level FlightAware ADS-B
Sat 04:54:49 AM 36.4060 135.9990 91° East 505 581 33,000  Level FlightAware ADS-B
Sat 04:55:24 AM 36.4030 136.0990 92° East 506 582 33,000  Level FlightAware ADS-B
Sat 04:55:58 AM 36.4010 136.2050 91° East 506 582 33,000  Level FlightAware ADS-B
Sat 04:56:33 AM 36.3990 136.3070 91° East 506 582 33,000  Level FlightAware ADS-B
Sat 04:57:08 AM 36.3990 136.4160 90° East 506 582 33,000  Level FlightAware ADS-B
Sat 04:57:38 AM 36.4060 136.5000 84° East 505 581 33,000  Level FlightAware ADS-B
Sat 04:58:13 AM 36.4170 136.6030 82° East 504 580 33,000 254 Level FlightAware ADS-B
Sat 04:58:49 AM 36.4270 136.7030 83° East 503 579 33,300 592 Climbing FlightAware ADS-B
Sat 04:59:24 AM 36.4370 136.7950 82° East 501 577 33,700 646 Climbing FlightAware ADS-B
Sat 04:59:54 AM 36.4460 136.8880 83° East 502 578 34,000 277 Climbing FlightAware ADS-B
Sat 05:00:29 AM 36.4560 136.9810 82° East 502 578 34,000  Level FlightAware ADS-B
Sat 05:01:10 AM 36.4670 137.0900 83° East 503 579 34,000  Level FlightAware ADS-B
Sat 05:01:39 AM 36.4760 137.1880 83° East 503 579 34,000  Level FlightAware ADS-B
Sat 05:02:14 AM 36.4860 137.2880 83° East 503 579 34,000  Level FlightAware ADS-B
Sat 05:02:54 AM 36.4960 137.3930 83° East 505 581 34,000  Level FlightAware ADS-B
Sat 05:03:29 AM 36.5070 137.5040 83° East 505 581 34,000  Level FlightAware ADS-B
Sat 05:03:59 AM 36.5150 137.5870 83° East 505 581 34,000  Level FlightAware ADS-B
Sat 05:04:34 AM 36.5250 137.6900 83° East 506 582 34,000  Level FlightAware ADS-B
Sat 05:05:09 AM 36.5340 137.7860 83° East 507 583 34,000  Level FlightAware ADS-B
Sat 05:05:45 AM 36.5430 137.8920 84° East 508 585 34,000  Level FlightAware ADS-B
Sat 05:06:24 AM 36.5540 138.0080 83° East 509 586 34,000  Level FlightAware ADS-B
Sat 05:06:54 AM 36.5620 138.0950 83° East 508 585 34,000  Level FlightAware ADS-B
Sat 05:07:29 AM 36.5710 138.1920 83° East 507 583 34,000  Level FlightAware ADS-B
Sat 05:08:09 AM 36.5810 138.3060 84° East 506 582 34,000  Level FlightAware ADS-B
Sat 05:08:39 AM 36.5890 138.4000 84° East 506 582 34,000  Level FlightAware ADS-B
Sat 05:09:24 AM 36.6000 138.5250 84° East 506 582 34,000  Level FlightAware ADS-B
Sat 05:09:59 AM 36.6090 138.6290 84° East 507 583 34,000  Level FlightAware ADS-B
Sat 05:10:34 AM 36.6180 138.7320 84° East 506 582 34,000  Level FlightAware ADS-B
Sat 05:11:09 AM 36.6260 138.8300 84° East 505 581 34,000  Level FlightAware ADS-B
Sat 05:11:44 AM 36.6350 138.9310 84° East 504 580 34,000  Level FlightAware ADS-B
Sat 05:12:19 AM 36.6430 139.0330 84° East 503 579 34,000  Level FlightAware ADS-B
Sat 05:12:54 AM 36.6510 139.1330 84° East 502 578 34,000  Level FlightAware ADS-B
Sat 05:13:29 AM 36.6590 139.2280 84° East 501 577 34,000  Level FlightAware ADS-B
Sat 05:14:04 AM 36.6680 139.3350 84° East 501 577 34,000  Level FlightAware ADS-B
Sat 05:14:39 AM 36.6760 139.4350 84° East 503 579 34,000  Level FlightAware ADS-B
Sat 05:15:13 AM 36.6840 139.5350 84° East 504 580 34,000  Level FlightAware ADS-B
Sat 05:15:50 AM 36.6920 139.6400 85° East 504 580 34,000  Level FlightAware ADS-B
Sat 05:16:25 AM 36.7000 139.7420 84° East 502 578 34,000  Level FlightAware ADS-B
Sat 05:17:01 AM 36.7070 139.8450 85° East 503 579 34,000  Level FlightAware ADS-B
Sat 05:17:33 AM 36.7140 139.9380 85° East 504 580 34,000  Level FlightAware ADS-B
Sat 05:18:09 AM 36.7220 140.0420 84° East 505 581 34,000  Level FlightAware ADS-B
Sat 05:18:38 AM 36.7280 140.1230 85° East 506 582 34,000  Level FlightAware ADS-B
Sat 05:19:13 AM 36.7360 140.2270 84° East 506 582 34,000  Level FlightAware ADS-B
Sat 05:19:49 AM 36.7430 140.3330 85° East 507 583 34,000  Level FlightAware ADS-B
Sat 05:20:25 AM 36.7520 140.4380 84° East 505 581 34,000  Level FlightAware ADS-B
Sat 05:20:58 AM 36.7600 140.5310 84° East 505 581 34,000  Level FlightAware ADS-B
Sat 05:21:34 AM 36.7690 140.6350 84° East 504 580 34,000  Level FlightAware ADS-B
Sat 05:22:10 AM 36.7780 140.7390 84° East 505 581 34,000  Level FlightAware ADS-B
Sat 05:22:45 AM 36.7860 140.8400 84° East 506 582 34,000  Level FlightAware ADS-B
Sat 05:23:18 AM 36.7940 140.9370 84° East 506 582 34,000  Level FlightAware ADS-B
Sat 05:23:54 AM 36.8020 141.0410 84° East 506 582 34,000  Level FlightAware ADS-B
Sat 05:24:30 AM 36.8110 141.1450 84° East 506 582 34,000  Level FlightAware ADS-B
Sat 05:25:05 AM 36.8180 141.2390 85° East 507 583 34,000  Level FlightAware ADS-B
Sat 05:25:36 AM 36.8250 141.3240 84° East 508 585 34,000  Level FlightAware ADS-B
Sat 05:26:14 AM 36.8340 141.4410 84° East 509 586 34,000  Level FlightAware ADS-B
Sat 05:26:56 AM 36.8430 141.5590 85° East 509 586 34,000  Level FlightAware ADS-B
Sat 05:27:32 AM 36.8510 141.6660 85° East 507 583 34,000  Level FlightAware ADS-B
Sat 05:28:02 AM 36.8580 141.7560 84° East 506 582 34,000  Level FlightAware ADS-B
Sat 05:28:33 AM 36.8650 141.8480 85° East 504 580 34,000  Level FlightAware ADS-B
Sat 05:29:15 AM 36.8740 141.9690 85° East 502 578 34,000  Level FlightAware ADS-B
Sat 05:29:45 AM 36.8800 142.0580 85° East 501 577 34,000  Level FlightAware ADS-B
Sat 05:30:30 AM 36.8890 142.1790 85° East 500 575 34,000  Level FlightAware ADS-B
Sat 05:31:18 AM 36.8960 142.2810 85° East 503 579 34,000  Level FlightAware ADS-B
Sat 05:31:53 AM 36.9060 142.4230 85° East 504 580 34,000  Level FlightAware ADS-B
Sat 05:32:33 AM 36.9140 142.5430 85° East 506 582 34,000  Level FlightAware ADS-B
Sat 05:33:08 AM 36.9200 142.6370 85° East 508 585 34,000  Level FlightAware ADS-B
Sat 05:33:38 AM 36.9260 142.7280 85° East 508 585 34,000  Level FlightAware ADS-B
Sat 05:34:13 AM 36.9330 142.8260 85° East 509 586 34,000  Level FlightAware ADS-B
Sat 05:34:53 AM 36.9410 142.9450 85° East 509 586 34,000  Level FlightAware ADS-B
Sat 05:35:35 AM 36.9470 143.0420 86° East 509 586 34,000  Level FlightAware ADS-B
Sat 05:36:11 AM 36.9530 143.1320 85° East 509 586 34,000  Level FlightAware ADS-B
Sat 05:36:48 AM 36.9610 143.2720 86° East 507 583 34,000  Level FlightAware ADS-B
Sat 05:37:28 AM 36.9670 143.3720 86° East 507 583 34,000  Level FlightAware ADS-B
Sat 05:38:04 AM 36.9720 143.4610 86° East 507 583 34,000  Level FlightAware ADS-B
Sat 05:38:41 AM 36.9770 143.5530 86° East 507 583 34,000  Level FlightAware ADS-B
Sat 05:39:15 AM 36.9810 143.6380 87° East 507 583 34,000  Level FlightAware ADS-B
Sat 05:39:51 AM 36.9860 143.7280 86° East 507 583 34,000  Level FlightAware ADS-B
Sat 05:40:27 AM 36.9910 143.8170 86° East 507 583 34,000 Level FlightAware ADS-B
Sat 05:43:00 AM 37.0325 144.2630 82° East  Level FlightAware Approximate
Sat 05:44:00 AM 37.0524 144.4375 82° East  Level FlightAware Approximate
Sat 05:45:00 AM 37.0720 144.6122 82° East  Level FlightAware Approximate
Sat 05:46:00 AM 37.0914 144.7869 82° East  Level FlightAware Approximate
Sat 05:47:00 AM 37.1105 144.9617 82° East  Level FlightAware Approximate
Sat 05:48:00 AM 37.1294 145.1365 82° East  Level FlightAware Approximate
Sat 05:49:00 AM 37.1480 145.3115 82° East  Level FlightAware Approximate
Sat 05:50:00 AM 37.1664 145.4865 82° East  Level FlightAware Approximate
Sat 05:51:00 AM 37.1860 145.6613 74° East  Level FlightAware Approximate
Sat 05:52:00 AM 37.2251 145.8310 74° East  Level FlightAware Approximate
Sat 05:53:00 AM 37.2641 146.0009 74° East  Level FlightAware Approximate
Sat 05:54:00 AM 37.3028 146.1709 74° East  Level FlightAware Approximate
Sat 05:55:00 AM 37.3412 146.3411 74° East  Level FlightAware Approximate
Sat 05:56:00 AM 37.3794 146.5115 74° East  Level FlightAware Approximate
Sat 05:57:00 AM 37.4174 146.6821 74° East  Level FlightAware Approximate
Sat 05:58:00 AM 37.4551 146.8528 74° East  Level FlightAware Approximate
Sat 05:59:00 AM 37.4926 147.0237 75° East  Level FlightAware Approximate
Sat 06:00:00 AM 37.5298 147.1948 75° East  Level FlightAware Approximate
Sat 06:01:00 AM 37.5668 147.3660 75° East  Level FlightAware Approximate
Sat 06:02:00 AM 37.6035 147.5374 75° East  Level FlightAware Approximate
Sat 06:03:00 AM 37.6400 147.7090 75° East  Level FlightAware Approximate
Sat 06:04:00 AM 37.6762 147.8808 75° East  Level FlightAware Approximate
Sat 06:05:00 AM 37.7122 148.0527 75° East  Level FlightAware Approximate
Sat 06:06:00 AM 37.7479 148.2248 75° East  Level FlightAware Approximate
Sat 06:07:00 AM 37.7834 148.3970 75° East  Level FlightAware Approximate
Sat 06:08:00 AM 37.8186 148.5694 75° East  Level FlightAware Approximate
Sat 06:09:00 AM 37.8536 148.7420 76° East  Level FlightAware Approximate
Sat 06:10:00 AM 37.8883 148.9148 76° East  Level FlightAware Approximate
Sat 06:11:00 AM 37.9228 149.0877 76° East  Level FlightAware Approximate
Sat 06:12:00 AM 37.9570 149.2607 76° East  Level FlightAware Approximate
Sat 06:13:00 AM 37.9910 149.4340 76° East  Level FlightAware Approximate
Sat 06:14:00 AM 38.0247 149.6074 76° East  Level FlightAware Approximate
Sat 06:15:00 AM 38.0582 149.7809 76° East  Level FlightAware Approximate
Sat 06:16:00 AM 38.0914 149.9546 76° East  Level FlightAware Approximate
Sat 06:17:00 AM 38.1607 150.1073 54° Northeast  Level FlightAware Approximate
Sat 06:18:00 AM 38.2428 150.2527 54° Northeast  Level FlightAware Approximate
Sat 06:19:00 AM 38.3246 150.3985 54° Northeast  Level FlightAware Approximate
Sat 06:20:00 AM 38.4063 150.5446 54° Northeast  Level FlightAware Approximate
Sat 06:21:00 AM 38.4879 150.6911 55° Northeast  Level FlightAware Approximate
Sat 06:22:00 AM 38.5692 150.8379 54° Northeast  Level FlightAware Approximate
Sat 06:23:00 AM 38.6513 150.9841 54° Northeast  Level FlightAware Approximate
Sat 06:24:00 AM 38.7333 151.1307 54° Northeast  Level FlightAware Approximate
Sat 06:25:00 AM 38.8150 151.2776 54° Northeast  Level FlightAware Approximate
Sat 06:26:00 AM 38.8966 151.4248 55° Northeast  Level FlightAware Approximate
Sat 06:27:00 AM 38.9780 151.5724 55° Northeast  Level FlightAware Approximate
Sat 06:28:00 AM 39.0592 151.7203 55° Northeast  Level FlightAware Approximate
Sat 06:29:00 AM 39.1402 151.8686 55° Northeast  Level FlightAware Approximate
Sat 06:30:00 AM 39.2210 152.0172 55° Northeast  Level FlightAware Approximate
Sat 06:31:00 AM 39.3017 152.1661 55° Northeast  Level FlightAware Approximate
Sat 06:32:00 AM 39.3821 152.3154 55° Northeast  Level FlightAware Approximate
Sat 06:33:00 AM 39.4624 152.4650 55° Northeast  Level FlightAware Approximate
Sat 06:34:00 AM 39.5422 152.6152 56° Northeast  Level FlightAware Approximate
Sat 06:35:00 AM 39.6215 152.7661 56° Northeast  Level FlightAware Approximate
Sat 06:36:00 AM 39.7281 152.9702 56° Northeast  Level FlightAware Approximate
Sat 06:37:00 AM 39.8343 153.1750 56° Northeast  Level FlightAware Approximate
Sat 06:38:00 AM 39.9402 153.3804 56° Northeast  Level FlightAware Approximate
Sat 06:39:00 AM 40.0458 153.5864 56° Northeast  Level FlightAware Approximate
Sat 06:40:00 AM 40.1510 153.7931 56° Northeast  Level FlightAware Approximate
Sat 06:41:00 AM 40.2558 154.0004 56° Northeast  Level FlightAware Approximate
Sat 06:42:00 AM 40.3602 154.2084 57° Northeast  Level FlightAware Approximate
Sat 06:43:00 AM 40.4642 154.4170 57° Northeast  Level FlightAware Approximate
Sat 06:44:00 AM 40.5679 154.6263 57° Northeast  Level FlightAware Approximate
Sat 06:45:00 AM 40.6712 154.8362 57° Northeast  Level FlightAware Approximate
Sat 06:46:00 AM 40.7742 155.0468 57° Northeast  Level FlightAware Approximate
Sat 06:47:00 AM 40.8767 155.2580 57° Northeast  Level FlightAware Approximate
Sat 06:48:00 AM 40.9789 155.4698 57° Northeast  Level FlightAware Approximate
Sat 06:49:00 AM 41.0806 155.6823 58° Northeast  Level FlightAware Approximate
Sat 06:50:00 AM 41.1820 155.8955 58° Northeast  Level FlightAware Approximate
Sat 06:51:00 AM 41.2830 156.1093 58° Northeast  Level FlightAware Approximate
Sat 06:52:00 AM 41.3835 156.3239 58° Northeast  Level FlightAware Approximate
Sat 06:53:00 AM 41.4837 156.5390 58° Northeast  Level FlightAware Approximate
Sat 06:54:00 AM 41.5835 156.7548 58° Northeast  Level FlightAware Approximate
Sat 06:55:00 AM 41.6829 156.9713 58° Northeast  Level FlightAware Approximate
Sat 06:56:00 AM 41.7819 157.1885 59° Northeast  Level FlightAware Approximate
Sat 06:57:00 AM 41.8804 157.4063 59° Northeast  Level FlightAware Approximate
Sat 06:58:00 AM 41.9786 157.6248 59° Northeast  Level FlightAware Approximate
Sat 06:59:00 AM 42.0763 157.8440 59° Northeast  Level FlightAware Approximate
Sat 07:00:00 AM 42.1736 158.0638 59° Northeast  Level FlightAware Approximate
Sat 07:01:00 AM 42.2705 158.2844 59° Northeast  Level FlightAware Approximate
Sat 07:02:00 AM 42.3670 158.5056 59° Northeast  Level FlightAware Approximate
Sat 07:03:00 AM 42.4630 158.7274 60° Northeast  Level FlightAware Approximate
Sat 07:04:00 AM 42.5586 158.9500 60° Northeast  Level FlightAware Approximate
Sat 07:05:00 AM 42.6538 159.1732 60° Northeast  Level FlightAware Approximate
Sat 07:06:00 AM 42.7485 159.3972 60° Northeast  Level FlightAware Approximate
Sat 07:07:00 AM 42.8428 159.6218 60° Northeast  Level FlightAware Approximate
Sat 07:08:00 AM 42.9367 159.8471 60° Northeast  Level FlightAware Approximate
Sat 07:09:00 AM 43.0265 160.0756 64° Northeast  Level FlightAware Approximate
Sat 07:10:00 AM 43.1083 160.3102 64° Northeast  Level FlightAware Approximate
Sat 07:11:00 AM 43.1895 160.5455 65° Northeast  Level FlightAware Approximate
Sat 07:12:00 AM 43.2703 160.7813 65° Northeast  Level FlightAware Approximate
Sat 07:13:00 AM 43.3514 161.0173 64° Northeast  Level FlightAware Approximate
Sat 07:14:00 AM 43.4346 161.2522 64° Northeast  Level FlightAware Approximate
Sat 07:15:00 AM 43.5173 161.4877 64° Northeast  Level FlightAware Approximate
Sat 07:16:00 AM 43.5995 161.7239 64° Northeast  Level FlightAware Approximate
Sat 07:17:00 AM 43.6813 161.9608 64° Northeast  Level FlightAware Approximate
Sat 07:18:00 AM 43.7609 162.1993 65° Northeast  Level FlightAware Approximate
Sat 07:19:00 AM 43.8399 162.4385 65° Northeast  Level FlightAware Approximate
Sat 07:20:00 AM 43.9184 162.6784 65° Northeast  Level FlightAware Approximate
Sat 07:21:00 AM 43.9964 162.9189 66° East  Level FlightAware Approximate
Sat 07:22:00 AM 44.0740 163.1600 66° East  Level FlightAware Approximate
Sat 07:23:00 AM 44.1510 163.4018 66° East  Level FlightAware Approximate
Sat 07:24:00 AM 44.2275 163.6441 66° East  Level FlightAware Approximate
Sat 07:25:00 AM 44.3035 163.8871 66° East  Level FlightAware Approximate
Sat 07:26:00 AM 44.3787 164.1309 67° East  Level FlightAware Approximate
Sat 07:27:00 AM 44.4533 164.3754 67° East  Level FlightAware Approximate
Sat 07:28:00 AM 44.5273 164.6205 67° East  Level FlightAware Approximate
Sat 07:29:00 AM 44.6008 164.8663 67° East  Level FlightAware Approximate
Sat 07:30:00 AM 44.6739 165.1126 67° East  Level FlightAware Approximate
Sat 07:31:00 AM 44.7463 165.3596 67° East  Level FlightAware Approximate
Sat 07:32:00 AM 44.8182 165.6072 68° East  Level FlightAware Approximate
Sat 07:33:00 AM 44.8896 165.8554 68° East  Level FlightAware Approximate
Sat 07:34:00 AM 44.9612 166.1038 68° East  Level FlightAware Approximate
Sat 07:35:00 AM 45.0327 166.3526 68° East  Level FlightAware Approximate
Sat 07:36:00 AM 45.1036 166.6020 68° East  Level FlightAware Approximate
Sat 07:37:00 AM 45.1740 166.8520 68° East  Level FlightAware Approximate
Sat 07:38:00 AM 45.2439 167.1026 68° East  Level FlightAware Approximate
Sat 07:39:00 AM 45.3132 167.3539 69° East  Level FlightAware Approximate
Sat 07:40:00 AM 45.3819 167.6057 69° East  Level FlightAware Approximate
Sat 07:41:00 AM 45.4501 167.8582 69° East  Level FlightAware Approximate
Sat 07:42:00 AM 45.5177 168.1113 69° East  Level FlightAware Approximate
Sat 07:43:00 AM 45.5848 168.3649 69° East  Level FlightAware Approximate
Sat 07:44:00 AM 45.6513 168.6192 69° East  Level FlightAware Approximate
Sat 07:45:00 AM 45.7173 168.8741 70° East  Level FlightAware Approximate
Sat 07:46:00 AM 45.7827 169.1296 70° East  Level FlightAware Approximate
Sat 07:47:00 AM 45.8475 169.3857 70° East  Level FlightAware Approximate
Sat 07:48:00 AM 45.9117 169.6424 70° East  Level FlightAware Approximate
Sat 07:49:00 AM 45.9754 169.8996 70° East  Level FlightAware Approximate
Sat 07:50:00 AM 46.0233 170.1635 78° East  Level FlightAware Approximate
Sat 07:51:00 AM 46.0610 170.4316 78° East  Level FlightAware Approximate
Sat 07:52:00 AM 46.0981 170.7001 79° East  Level FlightAware Approximate
Sat 07:53:00 AM 46.1345 170.9690 79° East  Level FlightAware Approximate
Sat 07:54:00 AM 46.1704 171.2381 79° East  Level FlightAware Approximate
Sat 07:55:00 AM 46.2055 171.5077 79° East  Level FlightAware Approximate
Sat 07:56:00 AM 46.2401 171.7776 79° East  Level FlightAware Approximate
Sat 07:57:00 AM 46.2740 172.0478 80° East  Level FlightAware Approximate
Sat 07:58:00 AM 46.3073 172.3183 80° East  Level FlightAware Approximate
Sat 07:59:00 AM 46.3399 172.5892 80° East  Level FlightAware Approximate
Sat 08:00:00 AM 46.3719 172.8604 80° East  Level FlightAware Approximate
Sat 08:01:00 AM 46.4033 173.1319 80° East  Level FlightAware Approximate
Sat 08:02:00 AM 46.4340 173.4037 81° East  Level FlightAware Approximate
Sat 08:03:00 AM 46.4640 173.6759 81° East  Level FlightAware Approximate
Sat 08:04:00 AM 46.4937 173.9482 81° East  Level FlightAware Approximate
Sat 08:05:00 AM 46.5227 174.2209 81° East  Level FlightAware Approximate
Sat 08:06:00 AM 46.5511 174.4938 81° East  Level FlightAware Approximate
Sat 08:07:00 AM 46.5789 174.7671 82° East  Level FlightAware Approximate
Sat 08:08:00 AM 46.6059 175.0406 82° East  Level FlightAware Approximate
Sat 08:09:00 AM 46.6324 175.3143 82° East  Level FlightAware Approximate
Sat 08:10:00 AM 46.6582 175.5884 82° East  Level FlightAware Approximate
Sat 08:11:00 AM 46.6833 175.8627 82° East  Level FlightAware Approximate
Sat 08:12:00 AM 46.7077 176.1372 82° East  Level FlightAware Approximate
Sat 08:13:00 AM 46.7316 176.4120 83° East  Level FlightAware Approximate
Sat 08:14:00 AM 46.7547 176.6870 83° East  Level FlightAware Approximate
Sat 08:15:00 AM 46.7772 176.9623 83° East  Level FlightAware Approximate
Sat 08:16:00 AM 46.7990 177.2378 83° East  Level FlightAware Approximate
Sat 08:17:00 AM 46.8206 177.5134 83° East  Level FlightAware Approximate
Sat 08:18:00 AM 46.8432 177.7890 83° East  Level FlightAware Approximate
Sat 08:19:00 AM 46.8651 178.0648 83° East  Level FlightAware Approximate
Sat 08:20:00 AM 46.8864 178.3409 83° East  Level FlightAware Approximate
Sat 08:21:00 AM 46.9070 178.6171 84° East  Level FlightAware Approximate
Sat 08:22:00 AM 46.9269 178.8936 84° East  Level FlightAware Approximate
Sat 08:23:00 AM 46.9462 179.1702 84° East  Level FlightAware Approximate
Sat 08:24:00 AM 46.9649 179.4471 84° East  Level FlightAware Approximate
Sat 08:25:00 AM 46.9828 179.7241 84° East  Level FlightAware Approximate
Sat 08:26:00 AM 47.0001 -179.9986 86° East  Level FlightAware Approximate
Sat 08:27:00 AM 47.0118 -179.7207 86° East  Level FlightAware Approximate
Sat 08:28:00 AM 47.0230 -179.4427 87° East  Level FlightAware Approximate
Sat 08:29:00 AM 47.0334 -179.1645 87° East  Level FlightAware Approximate
Sat 08:30:00 AM 47.0432 -178.8862 87° East  Level FlightAware Approximate
Sat 08:31:00 AM 47.0523 -178.6079 87° East  Level FlightAware Approximate
Sat 08:32:00 AM 47.0607 -178.3294 87° East  Level FlightAware Approximate
Sat 08:33:00 AM 47.0684 -178.0509 88° East  Level FlightAware Approximate
Sat 08:34:00 AM 47.0755 -177.7723 88° East  Level FlightAware Approximate
Sat 08:35:00 AM 47.0819 -177.4936 88° East  Level FlightAware Approximate
Sat 08:36:00 AM 47.0876 -177.2149 88° East  Level FlightAware Approximate
Sat 08:37:00 AM 47.0926 -176.9361 88° East  Level FlightAware Approximate
Sat 08:38:00 AM 47.0970 -176.6572 89° East  Level FlightAware Approximate
Sat 08:38:03 AM 46.6667 175.6167 82° East 559 643 35,000  Level Oakland Oceanic (ODAPS)
Sat 08:39:00 AM 47.1007 -176.3783 89° East  Level FlightAware Approximate
Sat 08:40:00 AM 47.1037 -176.0994 89° East  Level FlightAware Approximate
Sat 08:41:00 AM 47.1060 -175.8204 89° East  Level FlightAware Approximate
Sat 08:42:00 AM 47.1077 -175.5415 89° East  Level FlightAware Approximate
Sat 08:43:00 AM 47.1086 -175.2625 90° East  Level FlightAware Approximate
Sat 08:44:00 AM 46.7900 176.9948 83° East 559 643 35,000  Level FlightAware Transoceanic
Sat 08:45:00 AM 46.8089 177.2251 83° East 559 643 35,000  Level FlightAware Transoceanic
Sat 08:46:00 AM 46.8274 177.4556 83° East 559 643 35,000  Level FlightAware Transoceanic
Sat 08:47:00 AM 46.8454 177.6862 84° East 559 643 35,000  Level FlightAware Transoceanic
Sat 08:48:00 AM 46.8630 177.9169 84° East 559 643 35,000  Level FlightAware Transoceanic
Sat 08:49:00 AM 46.8801 178.1478 84° East 559 643 35,000  Level FlightAware Transoceanic
Sat 08:50:00 AM 46.8967 178.3789 84° East 559 643 35,000  Level FlightAware Transoceanic
Sat 08:51:00 AM 46.9128 178.6101 84° East 559 643 35,000  Level FlightAware Transoceanic
Sat 08:51:55 AM 46.9167 178.7167 84° East 553 636 35,000  Level Oakland Oceanic (ODAPS)
Sat 08:52:00 AM 46.9285 178.8414 84° East 559 643 35,000  Level FlightAware Transoceanic
Sat 08:53:00 AM 46.9438 179.0729 85° East 559 643 35,000  Level FlightAware Transoceanic
Sat 08:54:00 AM 46.9585 179.3045 85° East 559 643 35,000  Level FlightAware Transoceanic
Sat 08:55:00 AM 46.9728 179.5362 85° East 559 643 35,000  Level FlightAware Transoceanic
Sat 08:56:00 AM 46.9866 179.7680 85° East 559 643 35,000  Level FlightAware Transoceanic
Sat 08:57:00 AM 47.0000 -180.0000 86° East 559 643 35,000  Level FlightAware Transoceanic
Sat 08:57:41 AM 47.0000 180.0000 86° East 552 635 35,000  Level Oakland Oceanic (ODAPS)
Sat 08:58:00 AM 47.0000 -180.0000 86° East 553 636 35,000  Level FlightAware Transoceanic
Sat 08:59:00 AM 47.0095 -179.7783 87° East 553 636 35,000  Level FlightAware Transoceanic
Sat 09:00:00 AM 47.0185 -179.5566 87° East 553 636 35,000  Level FlightAware Transoceanic
Sat 09:01:00 AM 47.0271 -179.3348 87° East 553 636 35,000  Level FlightAware Transoceanic
Sat 09:02:00 AM 47.0353 -179.1129 87° East 553 636 35,000  Level FlightAware Transoceanic
Sat 09:03:00 AM 47.0439 -178.8658 87° East 552 635 35,000  Level FlightAware Transoceanic
Sat 09:04:00 AM 47.0513 -178.6387 87° East 552 635 35,000  Level FlightAware Transoceanic
Sat 09:05:00 AM 47.0583 -178.4116 88° East 552 635 35,000  Level FlightAware Transoceanic
Sat 09:05:48 AM 47.0667 -178.1833 88° East 544 626 35,000  Level Oakland Oceanic (ODAPS)
Sat 09:06:00 AM 47.0648 -178.1844 88° East 552 635 35,000  Level FlightAware Transoceanic
Sat 09:07:00 AM 47.0709 -177.9572 88° East 552 635 35,000  Level FlightAware Transoceanic
Sat 09:08:00 AM 47.0765 -177.7299 88° East 552 635 35,000  Level FlightAware Transoceanic
Sat 09:09:00 AM 47.0817 -177.5026 88° East 552 635 35,000  Level FlightAware Transoceanic
Sat 09:10:00 AM 47.0864 -177.2752 88° East 552 635 35,000  Level FlightAware Transoceanic
Sat 09:11:00 AM 47.0907 -177.0478 88° East 552 635 35,000  Level FlightAware Transoceanic
Sat 09:12:00 AM 47.0955 -176.8563 89° East 544 626 35,000  Level FlightAware Transoceanic
Sat 09:13:00 AM 47.0988 -176.6350 89° East 544 626 35,000  Level FlightAware Transoceanic
Sat 09:14:00 AM 47.1017 -176.4137 89° East 544 626 35,000  Level FlightAware Transoceanic
Sat 09:15:00 AM 47.1041 -176.1923 89° East 544 626 35,000  Level FlightAware Transoceanic
Sat 09:16:00 AM 47.1062 -175.9710 89° East 544 626 35,000  Level FlightAware Transoceanic
Sat 09:17:00 AM 47.1078 -175.7496 89° East 544 626 35,000  Level FlightAware Transoceanic
Sat 09:18:00 AM 47.1090 -175.5282 90° East 544 626 35,000  Level FlightAware Transoceanic
Sat 09:19:00 AM 47.1097 -175.3068 90° East 544 626 35,000  Level FlightAware Transoceanic
Sat 09:19:48 AM 47.1167 -175.1167 90° East 538 619 35,000  Level Oakland Oceanic (ODAPS)
Sat 09:20:00 AM 47.1101 -175.0854 90° East 544 626 35,000  Level FlightAware Transoceanic
Sat 09:21:00 AM 47.1100 -174.8640 90° East 544 626 35,000  Level FlightAware Transoceanic
Sat 09:22:00 AM 47.1094 -174.6426 90° East 544 626 35,000  Level FlightAware Transoceanic
Sat 09:23:00 AM 47.1085 -174.4212 90° East 544 626 35,000  Level FlightAware Transoceanic
Sat 09:24:00 AM 47.1071 -174.1998 91° East 544 626 35,000  Level FlightAware Transoceanic
Sat 09:25:00 AM 47.1053 -173.9784 91° East 544 626 35,000  Level FlightAware Transoceanic
Sat 09:26:00 AM 47.1082 -173.7801 91° East 538 619 35,000  Level FlightAware Transoceanic
Sat 09:27:00 AM 47.1053 -173.5573 91° East 538 619 35,000  Level FlightAware Transoceanic
Sat 09:28:00 AM 47.1020 -173.3347 91° East 538 619 35,000  Level FlightAware Transoceanic
Sat 09:29:00 AM 47.0982 -173.1120 92° East 538 619 35,000  Level FlightAware Transoceanic
Sat 09:30:00 AM 47.0940 -172.8894 92° East 538 619 35,000  Level FlightAware Transoceanic
Sat 09:31:00 AM 47.0893 -172.6668 92° East 538 619 35,000  Level FlightAware Transoceanic
Sat 09:32:00 AM 47.0842 -172.4443 92° East 538 619 35,000  Level FlightAware Transoceanic
Sat 09:33:00 AM 47.0787 -172.2218 92° East 538 619 35,000  Level FlightAware Transoceanic
Sat 09:33:33 AM 47.0667 -172.1000 92° East 533 613 35,000  Level Oakland Oceanic (ODAPS)
Sat 09:34:00 AM 47.0728 -171.9993 92° East 538 619 35,000  Level FlightAware Transoceanic
Sat 09:35:00 AM 47.0664 -171.7769 92° East 538 619 35,000  Level FlightAware Transoceanic
Sat 09:36:00 AM 47.0596 -171.5546 93° East 538 619 35,000  Level FlightAware Transoceanic
Sat 09:37:00 AM 47.0524 -171.3323 93° East 538 619 35,000  Level FlightAware Transoceanic
Sat 09:38:00 AM 47.0447 -171.1101 93° East 538 619 35,000  Level FlightAware Transoceanic
Sat 09:39:00 AM 47.0313 -170.8394 93° East 533 613 35,000  Level FlightAware Transoceanic
Sat 09:40:00 AM 47.0240 -170.6294 93° East 533 613 35,000  Level FlightAware Transoceanic
Sat 09:41:00 AM 47.0164 -170.4196 93° East 533 613 35,000  Level FlightAware Transoceanic
Sat 09:42:00 AM 47.0084 -170.2097 93° East 533 613 35,000  Level FlightAware Transoceanic
Sat 09:43:00 AM 47.0000 -170.0000 95° East 533 613 35,000  Level FlightAware Transoceanic
Sat 09:43:17 AM 47.0000 -170.0000 95° East 530 610 35,000  Level Oakland Oceanic (ODAPS)
Sat 09:44:00 AM 46.9879 -169.7839 95° East 533 613 35,000  Level FlightAware Transoceanic
Sat 09:45:00 AM 46.9754 -169.5679 95° East 533 613 35,000  Level FlightAware Transoceanic
Sat 09:46:00 AM 46.9625 -169.3520 95° East 533 613 35,000  Level FlightAware Transoceanic
Sat 09:47:00 AM 46.9492 -169.1362 95° East 533 613 35,000  Level FlightAware Transoceanic
Sat 09:47:25 AM 46.9500 -169.1167 95° East 526 605 35,000  Level Oakland Oceanic (ODAPS)
Sat 09:48:00 AM 46.9355 -168.9205 95° East 533 613 35,000  Level FlightAware Transoceanic
Sat 09:49:00 AM 46.9213 -168.7050 96° East 530 610 35,000  Level FlightAware Transoceanic
Sat 09:50:00 AM 46.9068 -168.4895 96° East 530 610 35,000  Level FlightAware Transoceanic
Sat 09:51:00 AM 46.8918 -168.2742 96° East 530 610 35,000  Level FlightAware Transoceanic
Sat 09:52:00 AM 46.8765 -168.0590 96° East 530 610 35,000  Level FlightAware Transoceanic
Sat 09:53:00 AM 46.8635 -167.8563 96° East 526 605 35,000  Level FlightAware Transoceanic
Sat 09:54:00 AM 46.8477 -167.6467 96° East 526 605 35,000  Level FlightAware Transoceanic
Sat 09:55:00 AM 46.8316 -167.4371 97° East 526 605 35,000  Level FlightAware Transoceanic
Sat 09:56:00 AM 46.8150 -167.2278 97° East 526 605 35,000  Level FlightAware Transoceanic
Sat 09:57:00 AM 46.7981 -167.0185 97° East 526 605 35,000  Level FlightAware Transoceanic
Sat 09:58:00 AM 46.7808 -166.8094 97° East 526 605 35,000  Level FlightAware Transoceanic
Sat 09:59:00 AM 46.7632 -166.6004 97° East 526 605 35,000  Level FlightAware Transoceanic
Sat 10:00:00 AM 46.7451 -166.3915 97° East 526 605 35,000  Level FlightAware Transoceanic
Sat 10:01:00 AM 46.7267 -166.1828 97° East 526 605 35,000 789 Level FlightAware Transoceanic
Sat 10:01:16 AM 46.7333 -166.1833 98° East 530 610 36,000  Climbing Oakland Oceanic (ODAPS)
Sat 10:02:00 AM 46.7079 -165.9742 98° East 526 605 35,000 -577 Descending FlightAware Transoceanic
Sat 10:03:00 AM 46.6887 -165.7658 98° East 526 605 35,000  Level FlightAware Transoceanic
Sat 10:04:00 AM 46.6691 -165.5575 98° East 526 605 35,000  Level FlightAware Transoceanic
Sat 10:05:00 AM 46.6492 -165.3494 98° East 526 605 35,000  Level FlightAware Transoceanic
Sat 10:06:00 AM 46.6288 -165.1414 98° East 526 605 35,000 500 Level FlightAware Transoceanic
Sat 10:07:00 AM 46.6135 -164.9339 98° East 530 610 36,000 500 Climbing FlightAware Transoceanic
Sat 10:08:00 AM 46.5922 -164.7262 99° East 530 610 36,000  Level FlightAware Transoceanic
Sat 10:09:00 AM 46.5705 -164.5187 99° East 530 610 36,000  Level FlightAware Transoceanic
Sat 10:10:00 AM 46.5485 -164.3114 99° East 530 610 36,000  Level FlightAware Transoceanic
Sat 10:11:00 AM 46.5260 -164.1042 99° East 530 610 36,000  Level FlightAware Transoceanic
Sat 10:12:00 AM 46.5033 -163.8972 99° East 530 610 36,000  Level FlightAware Transoceanic
Sat 10:13:00 AM 46.4801 -163.6903 99° East 530 610 36,000  Level FlightAware Transoceanic
Sat 10:14:00 AM 46.4565 -163.4837 99° East 530 610 36,000  Level FlightAware Transoceanic
Sat 10:15:00 AM 46.4326 -163.2772 100° East 530 610 36,000  Level FlightAware Transoceanic
Sat 10:15:09 AM 46.4167 -163.2500 99° East 528 608 36,000  Level Oakland Oceanic (ODAPS)
Sat 10:16:00 AM 46.4083 -163.0709 100° East 530 610 36,000  Level FlightAware Transoceanic
Sat 10:17:00 AM 46.3837 -162.8648 100° East 530 610 36,000  Level FlightAware Transoceanic
Sat 10:18:00 AM 46.3587 -162.6589 100° East 530 610 36,000  Level FlightAware Transoceanic
Sat 10:19:00 AM 46.3333 -162.4531 100° East 530 610 36,000  Level FlightAware Transoceanic
Sat 10:20:00 AM 46.3075 -162.2476 100° East 530 610 36,000  Level FlightAware Transoceanic
Sat 10:21:00 AM 46.2712 -162.0255 100° East 528 608 36,000  Level FlightAware Transoceanic
Sat 10:22:00 AM 46.2457 -161.8221 100° East 528 608 36,000  Level FlightAware Transoceanic
Sat 10:23:00 AM 46.2198 -161.6188 100° East 528 608 36,000  Level FlightAware Transoceanic
Sat 10:24:00 AM 46.1936 -161.4158 101° East 528 608 36,000  Level FlightAware Transoceanic
Sat 10:25:00 AM 46.1670 -161.2129 101° East 528 608 36,000  Level FlightAware Transoceanic
Sat 10:26:00 AM 46.1401 -161.0103 101° East 528 608 36,000  Level FlightAware Transoceanic
Sat 10:27:00 AM 46.1128 -160.8078 101° East 528 608 36,000  Level FlightAware Transoceanic
Sat 10:28:00 AM 46.0851 -160.6055 101° East 528 608 36,000  Level FlightAware Transoceanic
Sat 10:29:00 AM 46.0571 -160.4035 101° East 528 608 36,000  Level FlightAware Transoceanic
Sat 10:29:02 AM 46.0500 -160.4000 100° East 516 594 36,000  Level Oakland Oceanic (ODAPS)
Sat 10:30:00 AM 46.0287 -160.2016 102° East 528 608 36,000  Level FlightAware Transoceanic
Sat 10:30:58 AM 46.0000 -160.0000 86° East 516 594 36,000  Level Oakland Oceanic (ODAPS)
Sat 10:31:00 AM 46.0000 -160.0000 86° East 528 608 36,000  Level FlightAware Transoceanic
Sat 10:32:00 AM 46.0089 -159.7922 87° East 528 608 36,000  Level FlightAware Transoceanic
Sat 10:33:00 AM 46.0174 -159.5843 87° East 528 608 36,000  Level FlightAware Transoceanic
Sat 10:34:00 AM 46.0256 -159.3763 87° East 528 608 36,000  Level FlightAware Transoceanic
Sat 10:35:00 AM 46.0333 -159.1683 87° East 516 594 36,000  Level FlightAware Transoceanic
Sat 10:36:00 AM 46.0407 -158.9603 87° East 516 594 36,000  Level FlightAware Transoceanic
Sat 10:37:00 AM 46.0477 -158.7522 87° East 516 594 36,000  Level FlightAware Transoceanic
Sat 10:38:00 AM 46.0544 -158.5440 87° East 516 594 36,000  Level FlightAware Transoceanic
Sat 10:39:00 AM 46.0606 -158.3358 88° East 516 594 36,000  Level FlightAware Transoceanic
Sat 10:40:00 AM 46.0665 -158.1275 88° East 516 594 36,000  Level FlightAware Transoceanic
Sat 10:41:00 AM 46.0720 -157.9192 88° East 516 594 36,000  Level FlightAware Transoceanic
Sat 10:42:00 AM 46.0771 -157.7109 88° East 516 594 36,000  Level FlightAware Transoceanic
Sat 10:42:54 AM 46.0833 -157.5500 88° East 519 597 36,000  Level Oakland Oceanic (ODAPS)
Sat 10:43:00 AM 46.0818 -157.5025 88° East 516 594 36,000  Level FlightAware Transoceanic
Sat 10:44:00 AM 46.0862 -157.2941 88° East 516 594 36,000  Level FlightAware Transoceanic
Sat 10:45:00 AM 46.0902 -157.0856 88° East 516 594 36,000  Level FlightAware Transoceanic
Sat 10:46:00 AM 46.0938 -156.8771 89° East 516 594 36,000  Level FlightAware Transoceanic
Sat 10:47:00 AM 46.0970 -156.6686 89° East 516 594 36,000  Level FlightAware Transoceanic
Sat 10:48:00 AM 46.0998 -156.4601 89° East 516 594 36,000  Level FlightAware Transoceanic
Sat 10:49:00 AM 46.1040 -156.2911 89° East 519 597 36,000  Level FlightAware Transoceanic
Sat 10:50:00 AM 46.1061 -156.0812 89° East 519 597 36,000  Level FlightAware Transoceanic
Sat 10:51:00 AM 46.1078 -155.8713 89° East 519 597 36,000  Level FlightAware Transoceanic
Sat 10:52:00 AM 46.1091 -155.6614 90° East 519 597 36,000  Level FlightAware Transoceanic
Sat 10:53:00 AM 46.1101 -155.4515 90° East 519 597 36,000  Level FlightAware Transoceanic
Sat 10:54:00 AM 46.1107 -155.2416 90° East 519 597 36,000  Level FlightAware Transoceanic
Sat 10:55:00 AM 46.1108 -155.0316 90° East 519 597 36,000  Level FlightAware Transoceanic
Sat 10:56:00 AM 46.1106 -154.8217 90° East 519 597 36,000 566 Level FlightAware Transoceanic
Sat 10:56:46 AM 46.1167 -154.6833 90° East 517 595 37,000  Climbing Oakland Oceanic (ODAPS)
Sat 10:57:00 AM 46.1101 -154.6118 90° East 519 597 36,000 -811 Descending FlightAware Transoceanic
Sat 10:58:00 AM 46.1091 -154.4019 90° East 519 597 36,000  Level FlightAware Transoceanic
Sat 10:59:00 AM 46.1077 -154.1919 91° East 519 597 36,000  Level FlightAware Transoceanic
Sat 11:00:00 AM 46.1060 -153.9820 91° East 519 597 36,000  Level FlightAware Transoceanic
Sat 11:01:00 AM 46.1039 -153.7722 91° East 519 597 36,000  Level FlightAware Transoceanic
Sat 11:02:00 AM 46.1013 -153.5623 91° East 519 597 36,000 500 Level FlightAware Transoceanic
Sat 11:03:00 AM 46.1038 -153.4043 91° East 517 595 37,000 500 Climbing FlightAware Transoceanic
Sat 11:04:00 AM 46.1003 -153.1913 91° East 517 595 37,000  Level FlightAware Transoceanic
Sat 11:05:00 AM 46.0964 -152.9782 92° East 517 595 37,000  Level FlightAware Transoceanic
Sat 11:06:00 AM 46.0921 -152.7652 92° East 517 595 37,000  Level FlightAware Transoceanic
Sat 11:07:00 AM 46.0874 -152.5522 92° East 517 595 37,000  Level FlightAware Transoceanic
Sat 11:08:00 AM 46.0822 -152.3392 92° East 517 595 37,000  Level FlightAware Transoceanic
Sat 11:09:00 AM 46.0768 -152.1263 92° East 517 595 37,000  Level FlightAware Transoceanic
Sat 11:10:00 AM 46.0709 -151.9134 92° East 517 595 37,000  Level FlightAware Transoceanic
Sat 11:10:38 AM 46.0667 -151.8667 92° East 516 594 37,000  Level Oakland Oceanic (ODAPS)
Sat 11:11:00 AM 46.0645 -151.7006 93° East 517 595 37,000  Level FlightAware Transoceanic
Sat 11:12:00 AM 46.0579 -151.4878 93° East 517 595 37,000  Level FlightAware Transoceanic
Sat 11:13:00 AM 46.0508 -151.2751 93° East 517 595 37,000  Level FlightAware Transoceanic
Sat 11:14:00 AM 46.0433 -151.0624 93° East 517 595 37,000  Level FlightAware Transoceanic
Sat 11:15:00 AM 46.0354 -150.8498 93° East 517 595 37,000  Level FlightAware Transoceanic
Sat 11:16:00 AM 46.0334 -150.8291 93° East 516 594 37,000  Level FlightAware Transoceanic
Sat 11:17:00 AM 46.0256 -150.6217 93° East 516 594 37,000  Level FlightAware Transoceanic
Sat 11:18:00 AM 46.0174 -150.4144 93° East 516 594 37,000  Level FlightAware Transoceanic
Sat 11:19:00 AM 46.0089 -150.2072 93° East 516 594 37,000  Level FlightAware Transoceanic
Sat 11:19:55 AM 46.0000 -150.0000 95° East 510 587 37,000  Level Oakland Oceanic (ODAPS)
Sat 11:20:00 AM 46.0000 -150.0000 95° East 516 594 37,000  Level FlightAware Transoceanic
Sat 11:21:00 AM 45.9887 -149.7970 95° East 516 594 37,000  Level FlightAware Transoceanic
Sat 11:22:00 AM 45.9769 -149.5940 95° East 516 594 37,000  Level FlightAware Transoceanic
Sat 11:23:00 AM 45.9649 -149.3912 95° East 516 594 37,000  Level FlightAware Transoceanic
Sat 11:24:00 AM 45.9524 -149.1884 95° East 516 594 37,000  Level FlightAware Transoceanic
Sat 11:24:30 AM 45.9500 -149.0667 95° East 506 582 37,000  Level Oakland Oceanic (ODAPS)
Sat 11:25:00 AM 45.9397 -148.9857 95° East 516 594 37,000  Level FlightAware Transoceanic
Sat 11:26:00 AM 45.9265 -148.7832 95° East 510 587 37,000  Level FlightAware Transoceanic
Sat 11:27:00 AM 45.9130 -148.5807 96° East 510 587 37,000  Level FlightAware Transoceanic
Sat 11:28:00 AM 45.8991 -148.3783 96° East 510 587 37,000  Level FlightAware Transoceanic
Sat 11:29:00 AM 45.8849 -148.1760 96° East 510 587 37,000  Level FlightAware Transoceanic
Sat 11:30:00 AM 45.8671 -147.8682 96° East 506 582 37,000  Level FlightAware Transoceanic
Sat 11:31:00 AM 45.8521 -147.6688 96° East 506 582 37,000  Level FlightAware Transoceanic
Sat 11:32:00 AM 45.8367 -147.4695 96° East 506 582 37,000  Level FlightAware Transoceanic
Sat 11:33:00 AM 45.8210 -147.2704 97° East 506 582 37,000  Level FlightAware Transoceanic
Sat 11:34:00 AM 45.8049 -147.0713 97° East 506 582 37,000  Level FlightAware Transoceanic
Sat 11:35:00 AM 45.7885 -146.8724 97° East 506 582 37,000  Level FlightAware Transoceanic
Sat 11:36:00 AM 45.7717 -146.6736 97° East 506 582 37,000  Level FlightAware Transoceanic
Sat 11:37:00 AM 45.7546 -146.4749 97° East 506 582 37,000  Level FlightAware Transoceanic
Sat 11:38:00 AM 45.7372 -146.2763 97° East 506 582 37,000  Level FlightAware Transoceanic
Sat 11:38:23 AM 45.7333 -146.3167 97° East 503 579 37,000  Level Oakland Oceanic (ODAPS)
Sat 11:39:00 AM 45.7194 -146.0779 97° East 506 582 37,000  Level FlightAware Transoceanic
Sat 11:40:00 AM 45.7013 -145.8795 98° East 506 582 37,000  Level FlightAware Transoceanic
Sat 11:41:00 AM 45.6828 -145.6813 98° East 506 582 37,000  Level FlightAware Transoceanic
Sat 11:42:00 AM 45.6640 -145.4833 98° East 506 582 37,000  Level FlightAware Transoceanic
Sat 11:43:00 AM 45.6448 -145.2854 98° East 506 582 37,000  Level FlightAware Transoceanic
Sat 11:44:00 AM 45.6260 -145.1565 98° East 503 579 37,000  Level FlightAware Transoceanic
Sat 11:45:00 AM 45.6070 -144.9636 98° East 503 579 37,000  Level FlightAware Transoceanic
Sat 11:46:00 AM 45.5877 -144.7708 98° East 503 579 37,000  Level FlightAware Transoceanic
Sat 11:47:00 AM 45.5680 -144.5782 98° East 503 579 37,000  Level FlightAware Transoceanic
Sat 11:48:00 AM 45.5480 -144.3857 99° East 503 579 37,000  Level FlightAware Transoceanic
Sat 11:49:00 AM 45.5277 -144.1933 99° East 503 579 37,000  Level FlightAware Transoceanic
Sat 11:50:00 AM 45.5071 -144.0011 99° East 503 579 37,000  Level FlightAware Transoceanic
Sat 11:51:00 AM 45.4861 -143.8090 99° East 503 579 37,000  Level FlightAware Transoceanic
Sat 11:52:00 AM 45.4648 -143.6171 99° East 503 579 37,000  Level FlightAware Transoceanic
Sat 11:52:17 AM 45.4667 -143.6500 99° East 500 575 37,000  Level Oakland Oceanic (ODAPS)
Sat 11:53:00 AM 45.4432 -143.4253 99° East 503 579 37,000  Level FlightAware Transoceanic
Sat 11:54:00 AM 45.4213 -143.2336 99° East 503 579 37,000  Level FlightAware Transoceanic
Sat 11:55:00 AM 45.3990 -143.0421 99° East 503 579 37,000  Level FlightAware Transoceanic
Sat 11:56:00 AM 45.3765 -142.8508 100° East 503 579 37,000  Level FlightAware Transoceanic
Sat 11:57:00 AM 45.3536 -142.6596 100° East 503 579 37,000  Level FlightAware Transoceanic
Sat 11:58:00 AM 45.3319 -142.4910 100° East 500 575 37,000  Level FlightAware Transoceanic
Sat 11:59:00 AM 45.3083 -142.2984 100° East 500 575 37,000  Level FlightAware Transoceanic
Sat 12:00:00 PM 45.2844 -142.1059 100° East 500 575 37,000  Level FlightAware Transoceanic
Sat 12:01:00 PM 45.2601 -141.9136 100° East 500 575 37,000  Level FlightAware Transoceanic
Sat 12:02:00 PM 45.2355 -141.7215 100° East 500 575 37,000  Level FlightAware Transoceanic
Sat 12:03:00 PM 45.2107 -141.5295 100° East 500 575 37,000  Level FlightAware Transoceanic
Sat 12:04:00 PM 45.1854 -141.3377 101° East 500 575 37,000  Level FlightAware Transoceanic
Sat 12:05:00 PM 45.1599 -141.1461 101° East 500 575 37,000  Level FlightAware Transoceanic
Sat 12:06:00 PM 45.1340 -140.9546 101° East 500 575 37,000  Level FlightAware Transoceanic
Sat 12:06:07 PM 45.1333 -141.0000 100° East 493 567 37,000  Level Oakland Oceanic (ODAPS)
Sat 12:07:00 PM 45.1079 -140.7633 101° East 500 575 37,000  Level FlightAware Transoceanic
Sat 12:08:00 PM 45.0814 -140.5722 101° East 500 575 37,000  Level FlightAware Transoceanic
Sat 12:09:00 PM 45.0546 -140.3813 101° East 500 575 37,000  Level FlightAware Transoceanic
Sat 12:10:00 PM 45.0275 -140.1906 101° East 500 575 37,000  Level FlightAware Transoceanic
Sat 12:11:00 PM 45.0000 -140.0000 115° Southeast 500 575 37,000  Level FlightAware Transoceanic
Sat 12:11:24 PM 45.0000 -140.0000 115° Southeast 495 570 37,000  Level Oakland Oceanic (ODAPS)
Sat 12:12:00 PM 44.9427 -139.8283 115° Southeast 493 567 37,000  Level FlightAware Transoceanic
Sat 12:13:00 PM 44.8851 -139.6569 115° Southeast 493 567 37,000  Level FlightAware Transoceanic
Sat 12:14:00 PM 44.8273 -139.4859 116° Southeast 493 567 37,000  Level FlightAware Transoceanic
Sat 12:15:00 PM 44.7693 -139.3152 116° Southeast 493 567 37,000  Level FlightAware Transoceanic
Sat 12:16:00 PM 44.7109 -139.1449 116° Southeast 493 567 37,000  Level FlightAware Transoceanic
Sat 12:17:00 PM 44.6466 -138.9582 116° Southeast 495 570 37,000  Level FlightAware Transoceanic
Sat 12:18:00 PM 44.5868 -138.7858 116° Southeast 495 570 37,000  Level FlightAware Transoceanic
Sat 12:19:00 PM 44.5267 -138.6138 116° Southeast 495 570 37,000  Level FlightAware Transoceanic
Sat 12:20:00 PM 44.4664 -138.4421 116° Southeast 495 570 37,000  Level FlightAware Transoceanic
Sat 12:20:00 PM 44.5000 -138.5333 116° Southeast 490 564 37,000  Level Oakland Oceanic (ODAPS)
Sat 12:21:00 PM 44.4058 -138.2708 116° Southeast 495 570 37,000  Level FlightAware Transoceanic
Sat 12:22:00 PM 44.3449 -138.0998 117° Southeast 495 570 37,000  Level FlightAware Transoceanic
Sat 12:23:00 PM 44.2838 -137.9292 117° Southeast 495 570 37,000  Level FlightAware Transoceanic
Sat 12:24:00 PM 44.2225 -137.7589 117° Southeast 495 570 37,000  Level FlightAware Transoceanic
Sat 12:25:00 PM 44.1609 -137.5890 117° Southeast 495 570 37,000  Level FlightAware Transoceanic
Sat 12:26:00 PM 44.1366 -137.5185 117° Southeast 490 564 37,000  Level FlightAware Transoceanic
Sat 12:27:00 PM 44.0751 -137.3506 117° Southeast 490 564 37,000  Level FlightAware Transoceanic
Sat 12:28:00 PM 44.0134 -137.1831 117° Southeast 490 564 37,000  Level FlightAware Transoceanic
Sat 12:29:00 PM 43.9515 -137.0159 117° Southeast 490 564 37,000  Level FlightAware Transoceanic
Sat 12:30:00 PM 43.8893 -136.8490 117° Southeast 490 564 37,000  Level FlightAware Transoceanic
Sat 12:31:00 PM 43.8269 -136.6825 118° Southeast 490 564 37,000  Level FlightAware Transoceanic
Sat 12:32:00 PM 43.7642 -136.5163 118° Southeast 490 564 37,000  Level FlightAware Transoceanic
Sat 12:33:00 PM 43.7013 -136.3505 118° Southeast 490 564 37,000  Level FlightAware Transoceanic
Sat 12:33:52 PM 43.6500 -136.2167 118° Southeast 491 565 37,000  Level Oakland Oceanic (ODAPS)
Sat 12:34:00 PM 43.6382 -136.1850 118° Southeast 490 564 37,000  Level FlightAware Transoceanic
Sat 12:35:00 PM 43.5748 -136.0199 118° Southeast 490 564 37,000  Level FlightAware Transoceanic
Sat 12:36:00 PM 43.5112 -135.8551 118° Southeast 490 564 37,000  Level FlightAware Transoceanic
Sat 12:37:00 PM 43.4474 -135.6907 118° Southeast 490 564 37,000  Level FlightAware Transoceanic
Sat 12:38:00 PM 43.3833 -135.5266 118° Southeast 490 564 37,000  Level FlightAware Transoceanic
Sat 12:39:00 PM 43.3190 -135.3629 118° Southeast 490 564 37,000  Level FlightAware Transoceanic
Sat 12:40:00 PM 43.2646 -135.2260 119° Southeast 491 565 37,000  Level FlightAware Transoceanic
Sat 12:41:00 PM 43.1996 -135.0621 119° Southeast 491 565 37,000  Level FlightAware Transoceanic
Sat 12:42:00 PM 43.1343 -134.8985 119° Southeast 491 565 37,000  Level FlightAware Transoceanic
Sat 12:43:00 PM 43.0687 -134.7353 119° Southeast 491 565 37,000  Level FlightAware Transoceanic
Sat 12:44:00 PM 43.0030 -134.5725 119° Southeast 491 565 37,000  Level FlightAware Transoceanic
Sat 12:45:00 PM 42.9370 -134.4100 119° Southeast 491 565 37,000  Level FlightAware Transoceanic
Sat 12:46:00 PM 42.8708 -134.2478 119° Southeast 491 565 37,000  Level FlightAware Transoceanic
Sat 12:47:00 PM 42.8044 -134.0860 119° Southeast 491 565 37,000  Level FlightAware Transoceanic
Sat 12:47:45 PM 42.7500 -133.9667 119° Southeast 485 558 37,000  Level Oakland Oceanic (ODAPS)
Sat 12:48:00 PM 42.7377 -133.9246 119° Southeast 491 565 37,000  Level FlightAware Transoceanic
Sat 12:49:00 PM 42.6708 -133.7635 120° Southeast 491 565 37,000  Level FlightAware Transoceanic
Sat 12:50:00 PM 42.6037 -133.6027 120° Southeast 491 565 37,000  Level FlightAware Transoceanic
Sat 12:51:00 PM 42.5363 -133.4423 120° Southeast 491 565 37,000  Level FlightAware Transoceanic
Sat 12:52:00 PM 42.4688 -133.2822 120° Southeast 491 565 37,000  Level FlightAware Transoceanic
Sat 12:53:00 PM 42.4010 -133.1225 120° Southeast 491 565 37,000  Level FlightAware Transoceanic
Sat 12:54:00 PM 42.3426 -132.9948 120° Southeast 485 558 37,000  Level FlightAware Transoceanic
Sat 12:55:00 PM 42.2739 -132.8340 120° Southeast 485 558 37,000  Level FlightAware Transoceanic
Sat 12:56:00 PM 42.2049 -132.6736 120° Southeast 485 558 37,000  Level FlightAware Transoceanic
Sat 12:57:00 PM 42.1358 -132.5136 120° Southeast 485 558 37,000  Level FlightAware Transoceanic
Sat 12:58:00 PM 42.0664 -132.3539 120° Southeast 485 558 37,000  Level FlightAware Transoceanic
Sat 12:59:00 PM 41.9969 -132.1945 121° Southeast 485 558 37,000  Level FlightAware Transoceanic
Sat 01:00:00 PM 41.9271 -132.0355 121° Southeast 485 558 37,000  Level FlightAware Transoceanic
Sat 01:01:00 PM 41.8570 -131.8769 121° Southeast 485 558 37,000  Level FlightAware Transoceanic
Sat 01:01:36 PM 41.8333 -131.8000 121° Southeast 480 552 37,000  Level Oakland Oceanic (ODAPS)
Sat 01:02:00 PM 41.7868 -131.7186 121° Southeast 485 558 37,000  Level FlightAware Transoceanic
Sat 01:03:00 PM 41.7163 -131.5606 121° Southeast 485 558 37,000  Level FlightAware Transoceanic
Sat 01:04:00 PM 41.6456 -131.4030 121° Southeast 485 558 37,000  Level FlightAware Transoceanic
Sat 01:05:00 PM 41.5747 -131.2457 121° Southeast 485 558 37,000  Level FlightAware Transoceanic
Sat 01:06:00 PM 41.5036 -131.0888 121° Southeast 485 558 37,000  Level FlightAware Transoceanic
Sat 01:07:00 PM 41.4202 -130.8942 122° Southeast 480 552 37,000  Level FlightAware Transoceanic
Sat 01:08:00 PM 41.3506 -130.7444 122° Southeast 480 552 37,000  Level FlightAware Transoceanic
Sat 01:09:00 PM 41.2809 -130.5949 122° Southeast 480 552 37,000  Level FlightAware Transoceanic
Sat 01:10:00 PM 41.2109 -130.4457 122° Southeast 480 552 37,000  Level FlightAware Transoceanic
Sat 01:11:00 PM 41.1408 -130.2968 122° Southeast 480 552 37,000  Level FlightAware Transoceanic
Sat 01:12:00 PM 41.0705 -130.1482 122° Southeast 480 552 37,000  Level FlightAware Transoceanic
Sat 01:13:00 PM 41.0000 -130.0000 106° East 480 552 37,000  Level FlightAware Transoceanic
Sat 01:13:34 PM 41.0000 -130.0000 106° East 483 556 37,000  Level Oakland Oceanic (ODAPS)
Sat 01:14:00 PM 40.9632 -129.8317 106° East 480 552 37,000  Level FlightAware Transoceanic
Sat 01:15:00 PM 40.9261 -129.6636 106° East 480 552 37,000  Level FlightAware Transoceanic
Sat 01:15:28 PM 40.9333 -129.6667 107° East 488 562 37,000  Level Oakland Oceanic (ODAPS)
Sat 01:16:00 PM 40.8887 -129.4957 106° East 480 552 37,000  Level FlightAware Transoceanic
Sat 01:17:00 PM 40.8512 -129.3279 107° East 480 552 37,000  Level FlightAware Transoceanic
Sat 01:18:00 PM 40.8134 -129.1604 107° East 480 552 37,000  Level FlightAware Transoceanic
Sat 01:19:00 PM 40.7753 -128.9930 107° East 483 556 37,000  Level FlightAware Transoceanic
Sat 01:20:00 PM 40.7370 -128.8259 107° East 483 556 37,000  Level FlightAware Transoceanic
Sat 01:21:00 PM 40.7030 -128.6608 107° East 488 562 37,000  Level FlightAware Transoceanic
Sat 01:22:00 PM 40.6638 -128.4938 107° East 488 562 37,000  Level FlightAware Transoceanic
Sat 01:23:00 PM 40.6243 -128.3270 107° East 488 562 37,000  Level FlightAware Transoceanic
Sat 01:24:00 PM 40.5846 -128.1604 107° East 488 562 37,000  Level FlightAware Transoceanic
Sat 01:25:00 PM 40.5447 -127.9941 108° East 488 562 37,000  Level FlightAware Transoceanic
Sat 01:26:00 PM 40.5045 -127.8279 108° East 488 562 37,000  Level FlightAware Transoceanic
Sat 01:27:00 PM 40.4641 -127.6619 108° East 488 562 37,000  Level FlightAware Transoceanic
Sat 01:28:00 PM 40.4234 -127.4961 108° East 488 562 37,000  Level FlightAware Transoceanic
Sat 01:28:23 PM 40.4214 -127.4894 113° Southeast 489 563 37,000  Level Oakland Center
Sat 01:29:00 PM 40.3825 -127.3306 108° East 488 562 37,000  Level FlightAware Transoceanic
Sat 01:29:20 PM 40.3833 -127.3333 108° East 493 567 37,000  Level Oakland Oceanic (ODAPS)
Sat 01:30:00 PM 40.3414 -127.1652 108° East 488 562 37,000  Level FlightAware Transoceanic
Sat 01:30:25 PM 40.3386 -127.1506 108° East 489 563 37,000  Level Oakland Center
Sat 01:31:00 PM 40.3000 -127.0000 112° Southeast 488 562 37,000  Level FlightAware Transoceanic
Sat 01:31:27 PM 40.2953 -126.9811 108° East 491 565 37,000  Level Oakland Center
Sat 01:32:00 PM 40.2482 -126.8349 112° Southeast 488 562 37,000  Level FlightAware Transoceanic
Sat 01:32:28 PM 40.2353 -126.8231 116° Southeast 486 559 37,000  Level Oakland Center
Sat 01:33:00 PM 40.1961 -126.6700 113° Southeast 488 562 37,000  Level FlightAware Transoceanic
Sat 01:38:01 PM 39.8050 -125.9970 116° Southeast 37,000  Level FlightAware ADS-B
Sat 01:38:35 PM 39.7610 -125.9120 124° Southeast 473 544 37,000  Level FlightAware ADS-B
Sat 01:39:11 PM 39.7170 -125.8300 125° Southeast 473 544 37,000  Level FlightAware ADS-B
Sat 01:39:55 PM 39.6600 -125.7220 124° Southeast 474 545 37,000  Level FlightAware ADS-B
Sat 01:40:25 PM 39.6280 -125.6580 123° Southeast 474 545 37,000  Level FlightAware ADS-B
Sat 01:41:10 PM 39.5660 -125.5450 125° Southeast 471 542 37,000  Level FlightAware ADS-B
Sat 01:41:46 PM 39.5200 -125.4590 125° Southeast 470 541 37,000  Level FlightAware ADS-B
Sat 01:42:01 PM 39.5050 -125.4300 124° Southeast 469 540 37,000  Level FlightAware ADS-B
Sat 01:43:02 PM 39.4330 -125.2910 124° Southeast 467 537 37,000  Level FlightAware ADS-B
Sat 01:43:30 PM 39.3950 -125.2260 127° Southeast 467 537 37,000  Level FlightAware ADS-B
Sat 01:44:10 PM 39.3550 -125.1460 123° Southeast 467 537 37,000  Level FlightAware ADS-B
Sat 01:44:40 PM 39.3080 -125.0630 126° Southeast 467 537 37,000  Level FlightAware ADS-B
Sat 01:45:20 PM 39.2560 -124.9670 125° Southeast 473 544 37,000  Level FlightAware ADS-B
Sat 01:45:52 PM 39.2210 -124.9030 125° Southeast 473 544 37,000  Level FlightAware ADS-B
Sat 01:46:30 PM 39.1660 -124.8020 125° Southeast 474 545 37,000  Level FlightAware ADS-B
Sat 01:47:03 PM 39.1240 -124.7250 125° Southeast 475 547 37,000  Level FlightAware ADS-B
Sat 01:47:39 PM 39.0790 -124.6420 125° Southeast 473 544 37,000 -333 Level FlightAware ADS-B
Sat 01:48:15 PM 39.0330 -124.5590 125° Southeast 468 539 36,600 -943 Descending FlightAware ADS-B
Sat 01:48:49 PM 38.9920 -124.4850 125° Southeast 472 543 35,900 -1,164 Descending FlightAware ADS-B
Sat 01:49:22 PM 38.9500 -124.4080 125° Southeast 472 543 35,300 -930 Descending FlightAware ADS-B
Sat 01:50:00 PM 38.9020 -124.3210 125° Southeast 471 542 34,800 -957 Descending FlightAware ADS-B
Sat 01:50:31 PM 38.8630 -124.2510 126° Southeast 473 544 34,200 -1,147 Descending FlightAware ADS-B
Sat 01:51:08 PM 38.8160 -124.1670 126° Southeast 475 547 33,500 -1,068 Descending FlightAware ADS-B
Sat 01:51:44 PM 38.7690 -124.0820 125° Southeast 476 548 32,900 -882 Descending FlightAware ADS-B
Sat 01:52:16 PM 38.7310 -124.0130 125° Southeast 473 544 32,500 -870 Descending FlightAware ADS-B
Sat 01:52:53 PM 38.6830 -123.9280 126° Southeast 468 539 31,900 -1,216 Descending FlightAware ADS-B
Sat 01:53:30 PM 38.6370 -123.8450 125° Southeast 463 533 31,000 -1,739 Descending FlightAware ADS-B
Sat 01:54:02 PM 38.5960 -123.7720 126° Southeast 457 526 29,900 -2,118 Descending FlightAware ADS-B
Sat 01:54:38 PM 38.5520 -123.6950 126° Southeast 450 518 28,600 -2,057 Descending FlightAware ADS-B
Sat 01:55:12 PM 38.5110 -123.6220 126° Southeast 444 511 27,500 -1,970 Descending FlightAware ADS-B
Sat 01:55:45 PM 38.4730 -123.5540 126° Southeast 437 503 26,400 -2,000 Descending FlightAware ADS-B
Sat 01:56:24 PM 38.4280 -123.4760 126° Southeast 430 495 25,100 -1,840 Descending FlightAware ADS-B
Sat 01:57:00 PM 38.3840 -123.3990 126° Southeast 423 487 24,100 -1,000 Descending FlightAware ADS-B
Sat 01:57:36 PM 38.3440 -123.3270 125° Southeast 416 479 23,900 -1,250 Descending FlightAware ADS-B
Sat 01:58:12 PM 38.3020 -123.2550 127° Southeast 406 467 22,600 -2,471 Descending FlightAware ADS-B
Sat 01:58:44 PM 38.2680 -123.1960 126° Southeast 403 464 21,100 -2,824 Descending FlightAware ADS-B
Sat 01:59:20 PM 38.2280 -123.1260 126° Southeast 395 455 19,400 -2,630 Descending FlightAware ADS-B
Sat 01:59:57 PM 38.1910 -123.0600 125° Southeast 392 451 17,900 -2,100 Descending FlightAware ADS-B
Sat 02:00:40 PM 38.1440 -122.9790 126° Southeast 380 437 16,600 -1,823 Descending FlightAware ADS-B
Sat 02:01:16 PM 38.1070 -122.9140 126° Southeast 375 432 15,500 -1,818 Descending FlightAware ADS-B
Sat 02:01:46 PM 38.0730 -122.8630 130° Southeast 369 425 14,600 -1,727 Descending FlightAware ADS-B
Sat 02:02:22 PM 38.0290 -122.8120 138° Southeast 360 414 13,600 -1,417 Descending FlightAware ADS-B
Sat 02:02:58 PM 37.9930 -122.7740 140° Southeast 355 409 12,900 -1,612 Descending FlightAware ADS-B
Sat 02:03:29 PM 37.9470 -122.7240 139° Southeast 348 400 11,800 -1,652 Descending FlightAware ADS-B
Sat 02:04:07 PM 37.9000 -122.6740 140° Southeast 345 397 11,000 -615 Descending FlightAware ADS-B
Sat 02:04:47 PM 37.8500 -122.6200 140° Southeast 346 398 11,000  Level FlightAware ADS-B
Sat 02:05:23 PM 37.8070 -122.5750 140° Southeast 346 398 11,000 -98 Level FlightAware ADS-B
Sat 02:05:48 PM 37.7747 -122.5390 139° Southeast 346 398 10,900 -90 Descending FlightAware ADS-B
Sat 02:06:30 PM 37.7255 -122.4870 140° Southeast 340 391 10,900  Level FlightAware ADS-B
Sat 02:07:07 PM 37.6870 -122.4460 140° Southeast 283 326 10,900 113 Level FlightAware ADS-B
Sat 02:07:23 PM 37.6708 -122.4280 139° Southeast 267 307 11,000  Climbing FlightAware ADS-B
Sat 02:07:54 PM 37.6418 -122.3980 141° Southeast 263 303 10,900 -100 Descending FlightAware ADS-B
Sat 02:08:23 PM 37.6150 -122.3690 139° Southeast 262 302 10,900 -267 Level FlightAware ADS-B
Sat 02:08:39 PM 37.5976 -122.3560 149° Southeast 259 298 10,700 -1,000 Descending FlightAware ADS-B
Sat 02:09:11 PM 37.5644 -122.3350 153° Southeast 258 297 10,100 -894 Descending FlightAware ADS-B
Sat 02:09:26 PM 37.5482 -122.3250 154° Southeast 259 298 10,000 -600 Descending FlightAware ADS-B
Sat 02:09:41 PM 37.5319 -122.3140 152° Southeast 256 295 9,800 -1,200 Descending FlightAware ADS-B
Sat 02:09:56 PM 37.5161 -122.3040 153° Southeast 250 288 9,400 -1,935 Descending FlightAware ADS-B
Sat 02:10:12 PM 37.4999 -122.2940 154° Southeast 251 289 8,800 -2,063 Descending FlightAware ADS-B
Sat 02:10:28 PM 37.4835 -122.2840 154° Southeast 256 295 8,300 -1,548 Descending FlightAware ADS-B
Sat 02:10:43 PM 37.4674 -122.2740 154° Southeast 255 293 8,000 -968 Descending FlightAware ADS-B
Sat 02:10:59 PM 37.4502 -122.2640 155° Southeast 250 288 7,800 -750 Descending FlightAware ADS-B
Sat 02:11:15 PM 37.4341 -122.2540 154° Southeast 248 285 7,600 -1,000 Descending FlightAware ADS-B
Sat 02:11:29 PM 37.4193 -122.2450 154° Southeast 246 283 7,300 -947 Descending FlightAware ADS-B
Sat 02:11:34 PM 37.4148 -122.2410 145° Southeast 245 282 7,300 -750 Level FlightAware ADS-B
Sat 02:11:37 PM 37.4116 -122.2380 143° Southeast 244 281 7,200 -857 Descending FlightAware ADS-B
Sat 02:11:41 PM 37.4092 -122.2340 127° Southeast 243 280 7,200 -750 Level FlightAware ADS-B
Sat 02:11:45 PM 37.4065 -122.2300 130° Southeast 242 278 7,100 -600 Descending FlightAware ADS-B
Sat 02:11:51 PM 37.4031 -122.2220 118° Southeast 239 275 7,100 -333 Level FlightAware ADS-B
Sat 02:12:03 PM 37.3978 -122.2070 114° Southeast 232 267 7,000 -444 Descending FlightAware ADS-B
Sat 02:12:18 PM 37.3915 -122.1890 114° Southeast 217 250 6,900 -333 Descending FlightAware ADS-B
Sat 02:12:21 PM 37.3902 -122.1850 112° Southeast 213 245 6,900  Level FlightAware ADS-B
Sat 02:12:25 PM 37.3892 -122.1810 107° East 210 242 6,900  Level FlightAware ADS-B
Sat 02:12:28 PM 37.3886 -122.1770 101° East 208 239 6,900  Level FlightAware ADS-B
Sat 02:12:31 PM 37.3882 -122.1730 97° East 205 236 6,900 -857 Level FlightAware ADS-B
Sat 02:12:35 PM 37.3884 -122.1690 86° East 205 236 6,800 -750 Descending FlightAware ADS-B
Sat 02:12:39 PM 37.3891 -122.1640 80° East 204 235 6,800 -750 Level FlightAware ADS-B
Sat 02:12:43 PM 37.3903 -122.1600 69° East 202 232 6,700 -1,500 Descending FlightAware ADS-B
Sat 02:12:47 PM 37.3921 -122.1560 60° Northeast 201 231 6,600 -1,714 Descending FlightAware ADS-B
Sat 02:12:50 PM 37.3941 -122.1530 50° Northeast 200 230 6,500 -1,714 Descending FlightAware ADS-B
Sat 02:12:54 PM 37.3964 -122.1500 46° Northeast 200 230 6,400 -1,200 Descending FlightAware ADS-B
Sat 02:13:00 PM 37.4011 -122.1460 34° Northeast 199 229 6,300 -1,200 Descending FlightAware ADS-B
Sat 02:13:04 PM 37.4045 -122.1440 25° Northeast 200 230 6,200 -1,500 Descending FlightAware ADS-B
Sat 02:13:08 PM 37.4078 -122.1420 26° Northeast 202 232 6,100 -1,800 Descending FlightAware ADS-B
Sat 02:13:24 PM 37.4209 -122.1340 26° Northeast 205 236 5,600 -1,600 Descending FlightAware ADS-B
Sat 02:13:38 PM 37.4329 -122.1270 25° Northeast 205 236 5,300 -1,154 Descending FlightAware ADS-B
Sat 02:13:50 PM 37.4438 -122.1200 27° Northeast 202 232 5,100 -947 Descending FlightAware ADS-B
Sat 02:13:57 PM 37.4493 -122.1170 23° Northeast 201 231 5,000 -1,091 Descending FlightAware ADS-B
Sat 02:14:01 PM 37.4526 -122.1160 14° North 200 230 4,900 -857 Descending FlightAware ADS-B
Sat 02:14:04 PM 37.4553 -122.1150 16° North 199 229 4,900 -750 Level FlightAware ADS-B
Sat 02:14:09 PM 37.4599 -122.1150 360° North 198 228 4,800 -1,500 Descending FlightAware ADS-B
Sat 02:14:12 PM 37.4633 -122.1150 360° North 197 227 4,700 -857 Descending FlightAware ADS-B
Sat 02:14:16 PM 37.4669 -122.1160 348° North 196 226 4,700 -667 Level FlightAware ADS-B
Sat 02:14:21 PM 37.4706 -122.1190 327° Northwest 195 224 4,600 -1,200 Descending FlightAware ADS-B
Sat 02:14:26 PM 37.4742 -122.1210 336° Northwest 196 226 4,500 -750 Descending FlightAware ADS-B
Sat 02:14:29 PM 37.4765 -122.1230 325° Northwest 197 227 4,500 -1,200 Level FlightAware ADS-B
Sat 02:14:41 PM 37.4854 -122.1310 325° Northwest 198 228 4,200 -1,600 Descending FlightAware ADS-B
Sat 02:14:44 PM 37.4878 -122.1330 327° Northwest 198 228 4,100 -1,500 Descending FlightAware ADS-B
Sat 02:14:49 PM 37.4912 -122.1370 317° Northwest 198 228 4,000 -923 Descending FlightAware ADS-B
Sat 02:14:57 PM 37.4963 -122.1440 313° West 197 227 3,900 -800 Descending FlightAware ADS-B
Sat 02:15:04 PM 37.5014 -122.1490 322° Northwest 197 227 3,800 -923 Descending FlightAware ADS-B
Sat 02:15:10 PM 37.5060 -122.1530 325° Northwest 197 227 3,700 -1,385 Descending FlightAware ADS-B
Sat 02:15:17 PM 37.5107 -122.1580 320° Northwest 196 226 3,500 -1,200 Descending FlightAware ADS-B
Sat 02:15:30 PM 37.5205 -122.1660 327° Northwest 196 226 3,300 -1,000 Descending FlightAware ADS-B
Sat 02:15:35 PM 37.5240 -122.1700 318° Northwest 196 226 3,200 -1,091 Descending FlightAware ADS-B
Sat 02:15:41 PM 37.5279 -122.1750 315° West 195 224 3,100 -857 Descending FlightAware ADS-B
Sat 02:15:56 PM 37.5373 -122.1880 312° West 194 223 2,900 -947 Descending FlightAware ADS-B
Sat 02:16:00 PM 37.5393 -122.1900 322° Northwest 194 223 2,800 -1,333 Descending FlightAware ADS-B
Sat 02:16:05 PM 37.5427 -122.1950 311° West 193 222 2,700 -1,200 Descending FlightAware ADS-B
Sat 02:16:10 PM 37.5450 -122.1990 306° West 193 222 2,600 -1,091 Descending FlightAware ADS-B
Sat 02:16:16 PM 37.5480 -122.2050 302° West 193 222 2,500 -522 Descending FlightAware ADS-B
Sat 02:16:33 PM 37.5558 -122.2210 302° West 191 220 2,400 -600 Descending FlightAware ADS-B
Sat 02:16:46 PM 37.5618 -122.2340 300° West 184 212 2,200 -960 Descending FlightAware ADS-B
Sat 02:16:58 PM 37.5667 -122.2450 299° West 174 200 2,000 -1,043 Descending FlightAware ADS-B
Sat 02:17:09 PM 37.5706 -122.2540 299° West 166 191 1,800 -1,154 Descending FlightAware ADS-B
Sat 02:17:24 PM 37.5759 -122.2670 297° West 165 190 1,500 -1,111 Descending FlightAware ADS-B
Sat 02:17:36 PM 37.5799 -122.2770 297° West 157 181 1,300 -692 Descending FlightAware ADS-B
Sat 02:17:50 PM 37.5843 -122.2870 299° West 146 168 1,200 -621 Descending FlightAware ADS-B
Sat 02:18:05 PM 37.5891 -122.2990 297° West 143 165 1,000 -774 Descending FlightAware ADS-B
Sat 02:18:21 PM 37.5938 -122.3100 298° West 142 163 800 -727 Descending FlightAware ADS-B
Sat 02:18:38 PM 37.5991 -122.3230 297° West 140 161 600 -750 Descending FlightAware ADS-B
Sat 02:18:45 PM 37.6014 -122.3280 300° West 140 161 500 -818 Descending FlightAware ADS-B
Sat 02:19:00 PM 37.6059 -122.3390 297° West 139 160 300 -720 Descending FlightAware ADS-B
Sat 02:19:10 PM 37.6089 -122.3460 298° West 137 158 200 -600 Descending FlightAware ADS-B
Sat 02:19:26 PM 37.6135 -122.3570 298° West 139 160 -750 Descending FlightAware ADS-B

Login

Don't have an account? Register now (free) for customized features, flight alerts, and more!